メインページ
METAR-TAF:

METAR-TAF

空港 :

イエローナイフ空港

イエローナイフ, ノースウェスト準州, カナダ

緯度: 62-28N, 経度: 114-27W, 海抜: 205m

現時点の気象観測

当レポートは17分前の11:00(UTC)に作成
東/北東の風 10kt
気温 -12°C
湿度 85%
気圧 1012 hPa
視程: 4.8km
高度2000ftの曇り
小雪, 低い地吹雪

METAR: CYZF 141100Z 06010KT 3SM -SN DRSN OVC020 M12/M14 A2987 RMK SC8 SLP138

時間: 04:17 (11:17 UTC)

予報

当レポートは4時間6分前の07:11(UTC)に作成
予報は14日の 07時(UTC)から 15日の 06時(UTC)まで有効
の風 15kt、最大25ktの突風を伴う
視程: 9.7km
高度5000ftの曇り
小雪
14日の 07時(UTC)から 14日の 12時(UTC)まで一時的に
視程: 1.6km
高度800ftの
弱いにわか雪
14日の 1200時(UTC)から
東/北東の風 15kt、最大25ktの突風を伴う
視程: 10km
高度6000ftの曇り
小雪
14日の 12時(UTC)から 14日の 15時(UTC)まで一時的に
高度1500ftの曇り
弱いにわか雪
14日の 1500時(UTC)から
東/北東の風 15kt、最大25ktの突風を伴う
視程: 10km
高度2000ftの千切れ雲あり
高度5000ftの曇り
小雪
14日の 2100時(UTC)から
東/北東の風 15kt、最大25ktの突風を伴う
視程: 10km
高度2000ftの雲は散在している
高度10000ftの曇り
15日の 00時(UTC)から 15日の 02時(UTC)まで徐々に
東/北東の風 10kt

TAF: CYZF 140711Z 1407/1506 08015G25KT 6SM -SN OVC050 TEMPO 1407/1412 1SM -SHSN VV008 FM141200 07015G25KT P6SM -SN OVC060 TEMPO 1412/1415 21/2SM -SHSN OVC015 FM141500 07015G25KT P6SM -SN BKN020 OVC050 FM142100 06015G25KT P6SM SCT020 OVC100 BECMG 1500/1502 07010KT RMK NXT FCST BY 141200Z

4,000以上の空港の気象観測と天気予報(METAR報とTAF報)

利用可能な観測所は地図上に黄色い丸と赤い丸で示す。

丸の上にカーソルを重ねると観測所名を参照できる。

次にクリックすると気象観測と天気予報を参照できる。

マップの切り替え:黒色「×」印の緑ボタンをクリックして拡大、「-」印の緑ボタンをクリックして縮小、緑色の三角印をクリックして隣りの地図に切り替え


METAR-TAF: